createdAt,value
2022-08-11T00:01:28.357Z,99408.63
2022-08-11T00:03:57.657Z,99409.59
2022-08-11T00:06:31.451Z,99404.34
2022-08-11T00:09:00.822Z,99405.69
2022-08-11T00:11:43.878Z,99411.16
2022-08-11T00:14:37.282Z,99406.28
2022-08-11T00:17:17.625Z,99407.63
2022-08-11T00:20:11.711Z,99408.47
2022-08-11T00:22:41.917Z,99409.56
2022-08-11T00:25:21.754Z,99409.19
2022-08-11T00:27:49.358Z,99403.44
2022-08-11T00:30:17.357Z,99406.00
2022-08-11T00:32:56.075Z,99406.13
2022-08-11T00:35:54.742Z,99406.78
2022-08-11T00:38:26.408Z,99405.06
2022-08-11T00:41:14.768Z,99406.88
2022-08-11T00:44:10.691Z,99404.56
2022-08-11T00:46:59.655Z,99405.50
2022-08-11T00:50:11.321Z,99404.19
2022-08-11T00:52:53.557Z,99402.47
2022-08-11T00:56:04.090Z,99400.91
2022-08-11T00:59:34.258Z,99398.34
2022-08-11T01:02:19.694Z,99397.84
2022-08-11T01:05:28.392Z,99407.19
2022-08-11T01:08:41.949Z,99398.22
2022-08-11T01:11:55.348Z,99398.22
2022-08-11T01:14:57.028Z,99404.09
2022-08-11T01:17:26.973Z,99407.72
2022-08-11T01:20:47.678Z,99407.72
2022-08-11T01:23:31.526Z,99408.69
2022-08-11T01:26:57.894Z,99410.31
2022-08-11T01:30:05.081Z,99416.50
2022-08-11T01:33:08.931Z,99413.34
2022-08-11T01:36:03.854Z,99413.94
2022-08-11T01:39:27.474Z,99417.50
2022-08-11T01:42:40.465Z,99410.28
2022-08-11T01:45:24.036Z,99414.69
2022-08-11T01:48:08.976Z,99418.56
2022-08-11T01:51:20.320Z,99419.25
2022-08-11T01:54:27.460Z,99418.97
2022-08-11T01:57:01.865Z,99416.22
2022-08-11T01:59:39.257Z,99416.13
2022-08-11T02:02:54.133Z,99408.41
2022-08-11T02:06:00.363Z,99417.41
2022-08-11T02:08:36.172Z,99412.28
2022-08-11T02:11:35.602Z,99402.13
2022-08-11T02:14:31.682Z,99402.44
2022-08-11T02:17:34.896Z,99403.97
2022-08-11T02:20:36.977Z,99404.41
2022-08-11T02:24:05.292Z,99403.88
2022-08-11T02:26:44.555Z,99401.41
2022-08-11T02:29:38.471Z,99404.19
2022-08-11T02:33:07.225Z,99401.75
2022-08-11T02:35:42.781Z,99408.19
2022-08-11T02:38:27.949Z,99404.97
2022-08-11T02:41:42.328Z,99403.13
2022-08-11T02:44:49.240Z,99404.34
2022-08-11T02:48:11.685Z,99409.78
2022-08-11T02:51:24.850Z,99408.19
2022-08-11T02:54:17.589Z,99402.44
2022-08-11T02:57:16.701Z,99397.59
2022-08-11T03:00:00.311Z,99392.56
2022-08-11T03:02:46.345Z,99395.44
2022-08-11T03:05:32.472Z,99399.31
2022-08-11T03:08:21.525Z,99394.81
2022-08-11T03:11:30.967Z,99386.84
2022-08-11T03:14:33.770Z,99398.09
2022-08-11T03:17:21.800Z,99395.94
2022-08-11T03:20:38.066Z,99398.06
2022-08-11T03:23:41.232Z,99401.94
2022-08-11T03:26:28.668Z,99395.59
2022-08-11T03:29:24.901Z,99402.69
2022-08-11T03:32:07.889Z,99400.09
2022-08-11T03:34:39.600Z,99395.59
2022-08-11T03:37:51.095Z,99398.50
2022-08-11T03:42:01.788Z,99404.91
2022-08-11T03:44:31.411Z,99412.19
2022-08-11T03:47:33.224Z,99404.28
2022-08-11T03:50:13.479Z,99406.94
2022-08-11T03:53:30.807Z,99411.53
2022-08-11T03:56:25.081Z,99402.00
2022-08-11T03:59:39.672Z,99417.28
2022-08-11T04:02:26.832Z,99409.47
2022-08-11T04:04:54.748Z,99422.84
2022-08-11T04:07:57.980Z,99409.69
2022-08-11T04:10:54.670Z,99416.41
2022-08-11T04:14:30.856Z,99414.81
2022-08-11T04:17:31.801Z,99415.56
2022-08-11T04:20:35.743Z,99413.84
2022-08-11T04:24:36.133Z,99417.38
2022-08-11T04:27:15.733Z,99414.91
2022-08-11T04:30:05.080Z,99420.34
2022-08-11T04:33:03.382Z,99416.84
2022-08-11T04:36:01.102Z,99414.91
2022-08-11T04:39:01.608Z,99416.69
2022-08-11T04:42:29.586Z,99419.28
2022-08-11T04:46:06.440Z,99416.59
2022-08-11T04:49:13.593Z,99413.09
2022-08-11T04:53:10.411Z,99416.50
2022-08-11T04:56:27.002Z,99411.81
2022-08-11T04:59:49.436Z,99415.91
2022-08-11T05:03:12.791Z,99414.31
2022-08-11T05:06:25.240Z,99411.34
2022-08-11T05:09:26.375Z,99408.22
2022-08-11T05:12:20.308Z,99409.50
2022-08-11T05:15:18.795Z,99411.47
2022-08-11T05:18:25.201Z,99411.84
2022-08-11T05:21:20.177Z,99405.09
2022-08-11T05:24:31.870Z,99409.25
2022-08-11T05:27:24.008Z,99410.03
2022-08-11T05:30:25.865Z,99414.09
2022-08-11T05:33:40.416Z,99407.44
2022-08-11T05:36:22.494Z,99408.72
2022-08-11T05:39:36.455Z,99419.84
2022-08-11T05:42:30.353Z,99412.59
2022-08-11T05:45:57.409Z,99413.53
2022-08-11T05:48:52.191Z,99420.72
2022-08-11T05:51:38.887Z,99422.19
2022-08-11T05:54:29.699Z,99412.47
2022-08-11T05:57:02.257Z,99422.63
2022-08-11T05:59:32.567Z,99416.09
2022-08-11T06:02:07.419Z,99416.63
2022-08-11T06:04:35.321Z,99414.38
2022-08-11T06:07:09.852Z,99410.81
2022-08-11T06:09:44.905Z,99409.13
2022-08-11T06:12:32.507Z,99414.22
2022-08-11T06:15:11.644Z,99412.22
2022-08-11T06:17:49.259Z,99416.47
2022-08-11T06:20:19.164Z,99421.28
2022-08-11T06:22:57.194Z,99425.25
2022-08-11T06:25:33.055Z,99419.31
2022-08-11T06:28:03.947Z,99418.16
2022-08-11T06:30:47.262Z,99428.03
2022-08-11T06:33:36.250Z,99426.59
2022-08-11T06:36:18.287Z,99425.41
2022-08-11T06:39:12.693Z,99428.47
2022-08-11T06:41:54.073Z,99423.53
2022-08-11T06:44:41.598Z,99426.81
2022-08-11T06:47:15.340Z,99433.69
2022-08-11T06:50:07.479Z,99432.59
2022-08-11T06:52:38.541Z,99440.06
2022-08-11T06:55:57.450Z,99425.44
2022-08-11T06:58:27.838Z,99428.88
2022-08-11T07:01:01.432Z,99429.38
2022-08-11T07:03:37.039Z,99429.25
2022-08-11T07:07:24.025Z,99423.34
2022-08-11T07:10:52.352Z,99417.28
2022-08-11T07:13:45.625Z,99426.47
2022-08-11T07:16:24.333Z,99428.34
2022-08-11T07:19:22.635Z,99427.88
2022-08-11T07:22:10.379Z,99416.63
2022-08-11T07:25:03.726Z,99413.84
2022-08-11T07:28:18.736Z,99415.06
2022-08-11T07:30:47.898Z,99425.94
2022-08-11T07:34:08.455Z,99423.75
2022-08-11T07:36:30.667Z,99422.78
2022-08-11T07:38:59.797Z,99424.75
2022-08-11T07:41:31.277Z,99426.97
2022-08-11T07:44:08.942Z,99422.69
2022-08-11T07:47:06.264Z,99417.44
2022-08-11T07:49:56.773Z,99414.28
2022-08-11T07:52:30.603Z,99415.47
2022-08-11T07:55:12.386Z,99414.25
2022-08-11T07:58:15.266Z,99407.78
2022-08-11T08:01:21.763Z,99408.00
2022-08-11T08:04:10.643Z,99408.75
2022-08-11T08:06:58.881Z,99410.78
2022-08-11T08:09:45.834Z,99408.44
2022-08-11T08:12:33.922Z,99407.56
2022-08-11T08:15:26.025Z,99400.56
2022-08-11T08:18:20.708Z,99395.78
2022-08-11T08:20:51.354Z,99400.94
2022-08-11T08:23:36.122Z,99402.66
2022-08-11T08:26:31.282Z,99402.41
2022-08-11T08:29:23.288Z,99397.47
2022-08-11T08:31:56.078Z,99402.72
2022-08-11T08:34:24.669Z,99397.94
2022-08-11T08:36:53.877Z,99404.03
2022-08-11T08:39:22.919Z,99406.47
2022-08-11T08:41:57.138Z,99393.78
2022-08-11T08:44:38.496Z,99391.81
2022-08-11T08:47:13.252Z,99399.75
2022-08-11T08:49:52.025Z,99402.78
2022-08-11T08:52:31.941Z,99406.66
2022-08-11T08:55:06.344Z,99406.25
2022-08-11T08:57:39.897Z,99407.81
2022-08-11T09:00:12.599Z,99408.16
2022-08-11T09:02:43.589Z,99407.06
2022-08-11T09:05:12.904Z,99400.41
2022-08-11T09:07:41.628Z,99399.31
2022-08-11T09:10:11.350Z,99389.97
2022-08-11T09:12:43.927Z,99391.69
2022-08-11T09:15:14.108Z,99395.09
2022-08-11T09:17:58.732Z,99388.34
2022-08-11T09:20:29.287Z,99397.59
2022-08-11T09:26:31.041Z,99380.63
2022-08-11T09:29:01.139Z,99377.81
2022-08-11T09:31:37.277Z,99370.88
2022-08-11T09:34:07.992Z,99375.88
2022-08-11T09:36:54.461Z,99377.44
2022-08-11T09:39:40.463Z,99375.31
2022-08-11T09:42:11.418Z,99373.34
2022-08-11T09:44:51.079Z,99369.97
2022-08-11T09:47:30.361Z,99370.66
2022-08-11T09:50:02.235Z,99357.75
2022-08-11T09:52:36.354Z,99359.09
2022-08-11T09:55:11.347Z,99357.53
2022-08-11T09:58:05.625Z,99358.56
2022-08-11T10:00:37.567Z,99355.59
2022-08-11T10:03:18.758Z,99357.00
2022-08-11T10:06:13.686Z,99345.97
2022-08-11T10:08:43.486Z,99346.22
2022-08-11T10:11:15.545Z,99337.88
2022-08-11T10:14:33.130Z,99329.22
2022-08-11T10:16:53.906Z,99322.84
2022-08-11T10:19:22.453Z,99327.22
2022-08-11T10:22:12.756Z,99321.84
2022-08-11T10:25:03.348Z,99322.69
2022-08-11T10:28:17.579Z,99326.25
2022-08-11T10:30:38.398Z,99317.16
2022-08-11T10:33:59.353Z,99321.00
2022-08-11T10:36:34.347Z,99313.72
2022-08-11T10:39:05.138Z,99306.34
2022-08-11T10:42:08.351Z,99307.63
2022-08-11T10:44:43.623Z,99307.91
2022-08-11T10:47:32.725Z,99301.53
2022-08-11T10:50:20.517Z,99303.06
2022-08-11T10:53:09.828Z,99293.75
2022-08-11T10:55:58.654Z,99298.13
2022-08-11T10:58:46.380Z,99299.13
2022-08-11T11:01:25.130Z,99290.41
2022-08-11T11:04:04.662Z,99285.19
2022-08-11T11:07:04.889Z,99291.16
2022-08-11T11:09:45.103Z,99288.03
2022-08-11T11:12:47.063Z,99298.69
2022-08-11T11:15:35.663Z,99298.41
2022-08-11T11:18:11.651Z,99292.56
2022-08-11T11:21:09.470Z,99287.47
2022-08-11T11:24:11.996Z,99287.03
2022-08-11T11:26:57.144Z,99291.03
2022-08-11T11:29:53.050Z,99292.84
2022-08-11T11:32:49.781Z,99289.47
2022-08-11T11:35:35.696Z,99285.59
2022-08-11T11:38:13.741Z,99286.00
2022-08-11T11:40:42.673Z,99285.28
2022-08-11T11:43:11.272Z,99272.19
2022-08-11T11:45:41.602Z,99288.53
2022-08-11T11:48:09.360Z,99286.81
2022-08-11T11:50:38.725Z,99283.97
2022-08-11T11:53:09.845Z,99279.53
2022-08-11T11:55:37.454Z,99276.56
2022-08-11T11:58:25.431Z,99278.53
2022-08-11T12:01:12.232Z,99278.78
2022-08-11T12:03:41.030Z,99277.78
2022-08-11T12:06:14.274Z,99267.22
2022-08-11T12:08:43.916Z,99276.44
2022-08-11T12:11:32.136Z,99268.34
2022-08-11T12:14:04.768Z,99272.31
2022-08-11T12:16:41.581Z,99266.78
2022-08-11T12:19:16.817Z,99265.59
2022-08-11T12:22:04.746Z,99263.03
2022-08-11T12:24:54.290Z,99248.25
2022-08-11T12:27:25.479Z,99251.94
2022-08-11T12:30:00.305Z,99259.34
2022-08-11T12:32:33.017Z,99256.34
2022-08-11T12:35:01.563Z,99250.66
2022-08-11T12:37:39.458Z,99250.34
2022-08-11T12:40:42.930Z,99245.50
2022-08-11T12:43:46.544Z,99243.34
2022-08-11T12:46:33.032Z,99236.44
2022-08-11T12:49:31.571Z,99236.16
2022-08-11T12:52:14.637Z,99229.75
2022-08-11T12:54:51.557Z,99218.47
2022-08-11T12:57:47.800Z,99209.66
2022-08-11T13:00:35.808Z,99210.56
2022-08-11T13:03:26.131Z,99213.13
2022-08-11T13:05:58.381Z,99211.69
2022-08-11T13:08:29.632Z,99210.66
2022-08-11T13:11:19.962Z,99213.50
2022-08-11T13:13:57.116Z,99207.25
2022-08-11T13:16:57.434Z,99207.66
2022-08-11T13:19:26.270Z,99200.91
2022-08-11T13:21:53.821Z,99211.00
2022-08-11T13:24:22.765Z,99204.97
2022-08-11T13:26:51.878Z,99210.59
2022-08-11T13:29:26.918Z,99207.56
2022-08-11T13:32:00.045Z,99210.66
2022-08-11T13:34:33.211Z,99206.09
2022-08-11T13:37:05.304Z,99203.09
2022-08-11T13:39:35.435Z,99199.97
2022-08-11T13:42:04.655Z,99191.19
2022-08-11T13:44:37.846Z,99199.28
2022-08-11T13:47:08.550Z,99192.88
2022-08-11T13:49:39.551Z,99190.19
2022-08-11T13:52:13.821Z,99189.16
2022-08-11T13:54:43.457Z,99192.03
2022-08-11T13:58:18.289Z,99193.88
2022-08-11T14:00:13.074Z,99187.63
2022-08-11T14:02:55.504Z,99180.34
2022-08-11T14:05:31.945Z,99173.09
2022-08-11T14:08:08.379Z,99168.38
2022-08-11T14:12:22.792Z,99165.66
2022-08-11T14:14:16.655Z,99167.31
2022-08-11T14:16:46.110Z,99160.34
2022-08-11T14:19:15.459Z,99163.59
2022-08-11T14:22:07.655Z,99147.19
2022-08-11T14:24:42.810Z,99150.91
2022-08-11T14:28:32.640Z,99155.31
2022-08-11T14:30:01.022Z,99159.72
2022-08-11T14:32:28.395Z,99147.25
2022-08-11T14:34:56.406Z,99144.56
2022-08-11T14:37:29.351Z,99136.06
2022-08-11T14:40:21.778Z,99136.13
2022-08-11T14:43:07.742Z,99135.97
2022-08-11T14:45:57.475Z,99125.34
2022-08-11T14:48:27.017Z,99131.50
2022-08-11T14:50:54.353Z,99130.81
2022-08-11T14:53:24.163Z,99131.56
2022-08-11T14:56:12.652Z,99127.00
2022-08-11T14:58:40.425Z,99125.47
2022-08-11T15:01:28.003Z,99127.81
2022-08-11T15:04:34.283Z,99134.56
2022-08-11T15:06:46.311Z,99125.09
2022-08-11T15:09:13.516Z,99119.72
2022-08-11T15:11:59.741Z,99120.63
2022-08-11T15:14:45.625Z,99111.50
2022-08-11T15:17:14.403Z,99103.91
2022-08-11T15:20:03.284Z,99099.28
2022-08-11T15:22:49.247Z,99099.44
2022-08-11T15:25:20.130Z,99094.31
2022-08-11T15:28:09.985Z,99100.72
2022-08-11T15:30:57.724Z,99092.09
2022-08-11T15:33:47.325Z,99092.91
2022-08-11T15:36:34.013Z,99091.75
2022-08-11T15:39:20.788Z,99090.66
2022-08-11T15:42:16.349Z,99097.44
2022-08-11T15:45:14.441Z,99094.94
2022-08-11T15:47:58.500Z,99101.00
2022-08-11T15:50:41.063Z,99099.94
2022-08-11T15:53:42.099Z,99103.44
2022-08-11T15:56:11.657Z,99097.50
2022-08-11T15:59:40.578Z,99090.88
2022-08-11T16:02:16.155Z,99077.06
2022-08-11T16:04:47.326Z,99085.81
2022-08-11T16:07:26.674Z,99088.50
2022-08-11T16:10:21.657Z,99090.25
2022-08-11T16:13:07.663Z,99089.25
2022-08-11T16:15:59.601Z,99088.75
2022-08-11T16:18:43.445Z,99084.47
2022-08-11T16:21:26.149Z,99080.88
2022-08-11T16:24:07.948Z,99093.13
2022-08-11T16:27:10.914Z,99084.91
2022-08-11T16:29:32.230Z,99083.25
2022-08-11T16:32:17.999Z,99077.13
2022-08-11T16:35:07.582Z,99077.47
2022-08-11T16:37:55.570Z,99075.41
2022-08-11T16:40:24.336Z,99074.16
2022-08-11T16:43:13.450Z,99065.00
2022-08-11T16:46:00.749Z,99073.63
2022-08-11T16:48:37.573Z,99070.03
2022-08-11T16:51:12.187Z,99065.16
2022-08-11T16:53:59.463Z,99067.00
2022-08-11T16:56:41.617Z,99062.25
2022-08-11T16:59:18.540Z,99065.31
2022-08-11T17:01:58.062Z,99060.53
2022-08-11T17:05:29.262Z,99070.97
2022-08-11T17:08:20.742Z,99064.25
2022-08-11T17:11:19.371Z,99057.16
2022-08-11T17:14:01.424Z,99062.50
2022-08-11T17:16:36.458Z,99060.75
2022-08-11T17:19:11.820Z,99066.00
2022-08-11T17:22:09.532Z,99064.09
2022-08-11T17:24:45.461Z,99052.06
2022-08-11T17:27:18.061Z,99053.69
2022-08-11T17:29:59.375Z,99054.53
2022-08-11T17:33:01.016Z,99056.00
2022-08-11T17:35:41.536Z,99063.06
2022-08-11T17:38:20.929Z,99058.13
2022-08-11T17:41:23.263Z,99070.25
2022-08-11T17:44:13.645Z,99065.44
2022-08-11T17:47:05.708Z,99065.22
2022-08-11T17:49:39.392Z,99070.28
2022-08-11T17:52:27.535Z,99070.91
2022-08-11T17:55:17.347Z,99071.38
2022-08-11T17:58:24.202Z,99078.28
2022-08-11T18:00:54.358Z,99073.34
2022-08-11T18:03:32.972Z,99076.34
2022-08-11T18:06:06.192Z,99069.56
2022-08-11T18:08:58.402Z,99068.00
2022-08-11T18:12:06.426Z,99070.19
2022-08-11T18:14:57.542Z,99074.22
2022-08-11T18:17:43.535Z,99077.34
2022-08-11T18:20:29.505Z,99074.94
2022-08-11T18:23:17.981Z,99076.94
2022-08-11T18:26:07.858Z,99091.94
2022-08-11T18:29:09.146Z,99088.84
2022-08-11T18:32:05.841Z,99092.69
2022-08-11T18:34:59.857Z,99088.59
2022-08-11T18:37:52.182Z,99094.16
2022-08-11T18:40:47.949Z,99084.34
2022-08-11T18:43:38.581Z,99090.03
2022-08-11T18:46:28.426Z,99083.25
2022-08-11T18:49:33.135Z,99091.97
2022-08-11T18:52:36.911Z,99081.22
2022-08-11T18:55:30.108Z,99075.97
2022-08-11T18:58:21.867Z,99087.94
2022-08-11T19:01:09.263Z,99079.44
2022-08-11T19:04:10.188Z,99087.00
2022-08-11T19:06:58.279Z,99092.69
2022-08-11T19:09:47.265Z,99094.00
2022-08-11T19:12:35.452Z,99095.94
2022-08-11T19:15:23.965Z,99094.41
2022-08-11T19:18:14.222Z,99088.59
2022-08-11T19:21:02.900Z,99091.44
2022-08-11T19:24:03.006Z,99090.03
2022-08-11T19:26:53.241Z,99092.31
2022-08-11T19:30:07.807Z,99094.47
2022-08-11T19:32:50.680Z,99093.09
2022-08-11T19:35:38.325Z,99099.59
2022-08-11T19:38:24.935Z,99095.38
2022-08-11T19:41:12.488Z,99101.91
2022-08-11T19:44:08.227Z,99098.78
2022-08-11T19:46:56.710Z,99098.09
2022-08-11T19:49:44.722Z,99097.53
2022-08-11T19:52:30.569Z,99097.00
2022-08-11T19:55:17.719Z,99094.56
2022-08-11T19:58:05.028Z,99091.31
2022-08-11T20:00:52.527Z,99097.00
2022-08-11T20:03:38.547Z,99100.00
2022-08-11T20:06:27.963Z,99093.06
2022-08-11T20:09:20.081Z,99099.44
2022-08-11T20:12:11.789Z,99087.13
2022-08-11T20:15:00.629Z,99100.84
2022-08-11T20:17:53.811Z,99091.31
2022-08-11T20:20:44.898Z,99093.31
2022-08-11T20:23:35.663Z,99099.13
2022-08-11T20:26:31.775Z,99103.97
2022-08-11T20:29:20.313Z,99100.44
2022-08-11T20:32:09.639Z,99096.47
2022-08-11T20:34:58.598Z,99103.84
2022-08-11T20:37:50.742Z,99110.38
2022-08-11T20:40:43.528Z,99103.56
2022-08-11T20:44:06.841Z,99101.00
2022-08-11T20:46:46.400Z,99097.03
2022-08-11T20:49:44.946Z,99106.28
2022-08-11T20:52:47.389Z,99105.84
2022-08-11T20:55:46.081Z,99103.44
2022-08-11T20:59:13.937Z,99105.44
2022-08-11T21:01:51.210Z,99107.53
2022-08-11T21:04:54.507Z,99116.75
2022-08-11T21:07:42.958Z,99113.78
2022-08-11T21:10:30.785Z,99115.06
2022-08-11T21:13:26.358Z,99128.81
2022-08-11T21:16:26.354Z,99122.81
2022-08-11T21:20:01.737Z,99125.91
2022-08-11T21:23:05.756Z,99129.72
2022-08-11T21:26:08.437Z,99129.28
2022-08-11T21:28:59.695Z,99126.88
2022-08-11T21:31:50.343Z,99130.00
2022-08-11T21:34:40.510Z,99145.44
2022-08-11T21:37:29.083Z,99140.06
2022-08-11T21:40:20.644Z,99134.81
2022-08-11T21:43:09.261Z,99141.84
2022-08-11T21:45:57.926Z,99142.16
2022-08-11T21:48:49.202Z,99146.78
2022-08-11T21:51:35.686Z,99138.56
2022-08-11T21:54:22.702Z,99140.56
2022-08-11T21:57:11.231Z,99139.00
2022-08-11T22:00:11.629Z,99152.03
2022-08-11T22:02:59.141Z,99152.44
2022-08-11T22:05:47.058Z,99148.16
2022-08-11T22:08:33.822Z,99150.13
2022-08-11T22:11:32.120Z,99155.91
2022-08-11T22:14:23.460Z,99150.09
2022-08-11T22:17:10.121Z,99149.63
2022-08-11T22:20:01.059Z,99149.28
2022-08-11T22:22:52.307Z,99147.28
2022-08-11T22:25:44.254Z,99144.53
2022-08-11T22:28:38.022Z,99138.84
2022-08-11T22:31:26.766Z,99135.94
2022-08-11T22:34:12.672Z,99131.69
2022-08-11T22:37:02.220Z,99135.88
2022-08-11T22:40:01.618Z,99133.88
2022-08-11T22:42:50.946Z,99134.38
2022-08-11T22:45:37.812Z,99136.59
2022-08-11T22:48:29.133Z,99136.00
2022-08-11T22:51:18.544Z,99139.84
2022-08-11T22:54:05.700Z,99142.19
2022-08-11T22:56:52.483Z,99142.53
2022-08-11T22:59:39.668Z,99141.94
2022-08-11T23:02:26.077Z,99137.66
2022-08-11T23:05:13.051Z,99138.03
2022-08-11T23:08:00.031Z,99147.22
2022-08-11T23:10:46.855Z,99136.84
2022-08-11T23:13:32.704Z,99138.81
2022-08-11T23:16:19.668Z,99144.31
2022-08-11T23:19:07.785Z,99145.31
2022-08-11T23:21:54.763Z,99140.78
2022-08-11T23:24:43.426Z,99145.44
2022-08-11T23:27:32.530Z,99151.31
2022-08-11T23:30:20.578Z,99144.50
2022-08-11T23:33:12.903Z,99145.84
2022-08-11T23:36:05.409Z,99143.81
2022-08-11T23:38:52.168Z,99142.19
2022-08-11T23:41:38.556Z,99139.88
2022-08-11T23:44:26.915Z,99136.47
2022-08-11T23:47:17.479Z,99139.69
2022-08-11T23:50:05.973Z,99132.97
2022-08-11T23:52:54.315Z,99135.28
2022-08-11T23:55:40.283Z,99133.44
2022-08-11T23:58:27.750Z,99128.06
